Airfield :
LOGIN :

Register | Disclaimer

   EN    FR    IT 

 










Legend :    VFR   Marginal VFR   IFR   Intensive IFR   Very Intensive IFR
Visi :
Ceiling :
>= 8 km
>= 3000ft
5 to 8 km
1000 to 3000 ft
1500m to 5 km
500 to 1000 ft
800 to 1500m
200 to 500 ft
< 800m
< 200 ft
Symbols :   Thunderstorms  Fog  Heavy snow  Heavy precipitations  Wind > 20 kt
SIGMETs :     Misc.  Thunderstorms  Icing  Turbulence  Mountain Waves  Volcanic Ashes






- Airport Elevation : 37 ft
- IATA code : OLB


LIEO - Olbia Costa Smeralda

CURRENT METAR :
  • 040020Z 20003KT 170V230 CAVOK 21/13 Q1016

EXPIRED METARs :
  • 032350Z 26004KT CAVOK 23/11 Q1016
  • 031520Z 05009KT 020V080 CAVOK 33/13 Q1016
  • 032320Z VRB03KT CAVOK 21/13 Q1016
  • 032220Z VRB01KT CAVOK 22/14 Q1016
  • 032150Z 17001KT CAVOK 22/14 Q1016

TAF TAF LIEO
Valid from the 04 at 00:00 until the 05 at 00:00 UTC


032300Z 0400/0424 26007KT 9999 FEW060
BECMG 0409/0411 07010KT
BECMG 0416/0418 VRB05KT



MET'MAP, your aeronautical weather chart ! - Copyright ORBIFLY December 2007 - Disclaimer

ORBIFLY MET'MAP TEAM :

Programming & Development : Alexandra Zaïnal
Original concept : Baudouin d'Aumeries
Technical & hardware support : Manuel Goepfert
Assistance : Marc-Olivier Méhu




SOURCES & CREDITS :

   NOAA